Time;durP1;ratioP1;P1;durP2;ratioP2;P2;SDS_P1;SDS_P2;PMS_P1;PMS_P2;Temp;Humidity;BMP_temperature;BMP_pressure;BME280_temperature;BME280_humidity;BME280_pressure;Samples;Min_cycle;Max_cycle;Signal;HPM_P1;HPM_P2
2024/01/30 00:01:12;;;;;;;;;77.25;62.50;;;;;3.12;51.68;101592.44;4837331;29;8895;-74
2024/01/30 00:03:50;;;;;;;;;84.75;68.00;;;;;3.07;50.98;101591.38;4837333;29;8896;-74
2024/01/30 00:06:20;;;;;;;;;76.50;62.00;;;;;3.11;51.56;101585.47;4837499;29;8884;-74
2024/01/30 00:08:49;;;;;;;;;83.00;65.50;;;;;3.11;50.90;101589.75;4837352;29;8911;-74
2024/01/30 00:11:18;;;;;;;;;86.25;69.00;;;;;3.00;51.29;101591.94;4851205;29;8934;-74
2024/01/30 00:13:48;;;;;;;;;87.33;68.33;;;;;2.92;52.20;101589.00;4836469;29;8876;-73
2024/01/30 00:16:25;;;;;;;;;95.50;74.75;;;;;3.00;51.83;101591.94;4837986;29;9139;-73
2024/01/30 00:18:55;;;;;;;;;91.00;71.00;;;;;2.87;52.27;101603.50;4837442;29;9565;-74
2024/01/30 00:21:24;;;;;;;;;90.00;69.33;;;;;2.89;51.71;101596.66;4820850;29;9381;-73
2024/01/30 00:23:53;;;;;;;;;94.67;72.33;;;;;2.93;51.89;101589.88;4851712;29;9027;-74
2024/01/30 00:26:22;;;;;;;;;93.33;71.00;;;;;2.96;52.09;101596.09;4855413;29;9226;-73
2024/01/30 00:28:52;;;;;;;;;71.75;57.75;;;;;2.98;52.03;101594.44;4853263;29;9235;-74
2024/01/30 00:31:21;;;;;;;;;72.50;57.00;;;;;2.90;52.04;101602.72;4835906;29;8880;-72
2024/01/30 00:33:50;;;;;;;;;68.25;56.75;;;;;2.82;52.73;101605.00;4837292;29;8984;-74
2024/01/30 00:36:19;;;;;;;;;70.00;54.25;;;;;2.78;53.67;101603.09;4853632;29;8907;-75
2024/01/30 00:38:48;;;;;;;;;63.25;52.00;;;;;2.89;52.98;101596.66;4857956;29;8865;-73
2024/01/30 00:41:18;;;;;;;;;69.50;56.00;;;;;2.87;53.26;101600.00;4858912;29;8888;-72
2024/01/30 00:43:47;;;;;;;;;64.75;53.75;;;;;2.92;53.45;101598.47;4859549;29;8873;-73
2024/01/30 00:46:17;;;;;;;;;64.00;51.25;;;;;2.96;53.37;101601.28;4843633;29;8888;-73
2024/01/30 00:48:47;;;;;;;;;71.25;58.25;;;;;2.82;54.12;101607.59;4840506;29;8940;-74
2024/01/30 00:51:15;;;;;;;;;67.75;55.25;;;;;2.81;53.60;101614.50;4839966;29;8987;-74
2024/01/30 00:53:45;;;;;;;;;67.25;54.25;;;;;2.89;53.70;101611.34;4839928;29;8899;-74
2024/01/30 00:56:13;;;;;;;;;64.50;54.00;;;;;2.93;54.05;101608.94;4839004;29;8895;-73
2024/01/30 00:58:42;;;;;;;;;68.00;56.00;;;;;2.86;53.72;101600.81;4840032;29;8990;-73
2024/01/30 01:01:11;;;;;;;;;67.75;52.75;;;;;2.81;53.89;101603.22;4842581;29;8883;-75
2024/01/30 01:03:43;;;;;;;;;65.00;53.75;;;;;2.89;53.19;101596.66;4846658;29;8860;-73
2024/01/30 01:06:12;;;;;;;;;71.00;57.75;;;;;2.76;53.89;101596.94;4827318;29;8892;-73
2024/01/30 01:08:41;;;;;;;;;70.50;56.50;;;;;2.83;53.41;101598.09;4858489;29;8888;-73
2024/01/30 01:11:10;;;;;;;;;69.50;55.00;;;;;2.77;54.17;101596.13;4849945;29;8876;-74
2024/01/30 01:13:39;;;;;;;;;75.25;58.50;;;;;2.69;54.57;101593.16;4837447;29;8879;-76
2024/01/30 01:16:08;;;;;;;;;63.25;53.25;;;;;2.56;54.65;101598.63;4838838;29;8875;-73
2024/01/30 01:18:37;;;;;;;;;69.00;57.50;;;;;2.59;54.84;101593.59;4836014;29;8883;-74
2024/01/30 01:21:08;;;;;;;;;71.50;57.50;;;;;2.65;54.36;101586.06;4841068;29;8887;-74
2024/01/30 01:23:37;;;;;;;;;68.75;54.75;;;;;2.55;54.88;101589.97;4839297;29;8887;-74
2024/01/30 01:26:05;;;;;;;;;66.50;53.25;;;;;2.64;54.35;101594.69;4839949;29;8906;-75
2024/01/30 01:28:34;;;;;;;;;63.75;52.50;;;;;2.65;54.44;101591.25;4839511;29;8895;-73
2024/01/30 01:31:05;;;;;;;;;62.25;49.50;;;;;2.67;54.13;101591.34;4837875;29;8851;-75
2024/01/30 01:33:36;;;;;;;;;61.75;52.75;;;;;2.66;54.26;101590.47;4834700;29;9757;-72
2024/01/30 01:36:07;;;;;;;;;71.75;53.75;;;;;2.58;54.49;101595.31;4821230;29;8878;-73
2024/01/30 01:38:36;;;;;;;;;68.25;51.50;;;;;2.41;54.98;101594.56;4821008;29;8922;-73
2024/01/30 01:41:05;;;;;;;;;64.50;54.50;;;;;2.30;55.45;101598.38;4841467;29;8888;-73
2024/01/30 01:43:34;;;;;;;;;71.50;56.75;;;;;2.34;55.01;101597.69;4857386;29;8876;-74
2024/01/30 01:46:03;;;;;;;;;75.50;58.75;;;;;2.34;55.19;101587.28;4850110;29;8951;-75
2024/01/30 01:48:33;;;;;;;;;63.25;52.00;;;;;2.22;55.29;101598.00;4838296;29;8899;-75
2024/01/30 01:51:02;;;;;;;;;71.50;57.25;;;;;2.17;56.07;101590.84;4838871;29;8871;-73
2024/01/30 01:53:33;;;;;;;;;66.50;53.00;;;;;2.01;56.73;101597.00;4839579;29;8895;-73
2024/01/30 01:56:03;;;;;;;;;66.00;54.50;;;;;1.91;57.09;101598.25;4839791;29;9674;-73
2024/01/30 01:58:32;;;;;;;;;54.00;47.50;;;;;1.90;56.76;101590.41;4839011;29;8893;-74
2024/01/30 02:01:01;;;;;;;;;63.00;53.25;;;;;1.92;57.06;101600.06;4852355;29;8885;-73
2024/01/30 02:03:31;;;;;;;;;60.50;49.25;;;;;2.01;56.78;101594.41;4841410;29;8876;-74
2024/01/30 02:06:00;;;;;;;;;51.75;44.75;;;;;1.93;56.93;101594.03;4857206;29;8889;-74
2024/01/30 02:08:29;;;;;;;;;61.25;50.75;;;;;1.92;57.03;101599.16;4856737;29;9000;-74
2024/01/30 02:10:59;;;;;;;;;61.25;50.75;;;;;1.84;57.22;101598.78;4855823;29;8874;-74
2024/01/30 02:13:28;;;;;;;;;61.75;50.75;;;;;1.79;57.14;101590.81;4839656;29;8893;-75
2024/01/30 02:15:57;;;;;;;;;61.00;52.25;;;;;1.78;57.10;101599.38;4854768;29;9674;-73
2024/01/30 02:18:26;;;;;;;;;63.00;53.50;;;;;1.57;57.97;101594.06;4838767;29;8899;-74
2024/01/30 02:21:17;;;;;;;;;66.25;51.00;;;;;1.62;57.22;101599.47;4837330;29;8894;-72
2024/01/30 02:23:48;;;;;;;;;59.50;48.00;;;;;1.67;57.46;101597.09;4846185;29;8928;-74
2024/01/30 02:26:16;;;;;;;;;63.25;49.75;;;;;1.76;57.55;101602.72;4857098;29;8936;-74
2024/01/30 02:28:45;;;;;;;;;65.25;54.00;;;;;1.80;56.96;101605.53;4844350;29;8995;-74
2024/01/30 02:31:14;;;;;;;;;68.50;55.00;;;;;1.77;56.77;101604.53;4838024;29;8925;-74
2024/01/30 02:33:44;;;;;;;;;71.25;55.00;;;;;1.57;57.81;101598.34;4850495;29;8880;-73
2024/01/30 02:36:12;;;;;;;;;73.25;57.25;;;;;1.57;57.57;101590.56;4851971;29;8895;-73
2024/01/30 02:38:43;;;;;;;;;68.75;56.75;;;;;1.52;58.34;101590.38;4852504;29;8887;-74
2024/01/30 02:41:12;;;;;;;;;68.75;56.25;;;;;1.63;57.98;101591.78;4850730;29;8888;-73
2024/01/30 02:43:41;;;;;;;;;68.75;55.00;;;;;1.68;57.26;101597.16;4856414;29;8995;-74
2024/01/30 02:46:09;;;;;;;;;67.50;55.00;;;;;1.62;57.72;101590.00;4858451;29;8999;-74
2024/01/30 02:48:39;;;;;;;;;69.50;55.50;;;;;1.73;57.26;101587.91;4841465;29;8993;-73
2024/01/30 02:51:07;;;;;;;;;70.00;54.25;;;;;1.66;57.13;101587.56;4836860;29;8891;-72
2024/01/30 02:53:36;;;;;;;;;75.25;60.00;;;;;1.73;57.01;101597.38;4838386;29;8875;-74
2024/01/30 02:56:09;;;;;;;;;69.25;56.75;;;;;1.86;56.35;101591.97;4835797;29;9010;-74
2024/01/30 02:58:38;;;;;;;;;66.50;56.25;;;;;1.91;56.81;101593.09;4841930;29;9020;-72
2024/01/30 03:01:07;;;;;;;;;69.75;57.25;;;;;2.01;56.20;101592.72;4854398;29;9712;-73
2024/01/30 03:03:36;;;;;;;;;74.00;59.75;;;;;2.10;56.12;101600.03;4854183;29;8868;-74
2024/01/30 03:06:06;;;;;;;;;68.00;56.50;;;;;2.11;55.93;101588.84;4837368;29;8894;-71
2024/01/30 03:08:36;;;;;;;;;74.75;58.75;;;;;2.21;55.10;101597.94;4823256;29;8906;-73
2024/01/30 03:11:05;;;;;;;;;73.50;57.75;;;;;2.28;55.25;101599.09;4856136;29;8889;-73
2024/01/30 03:13:35;;;;;;;;;72.00;58.75;;;;;2.28;55.71;101604.28;4850162;29;8875;-74
2024/01/30 03:16:05;;;;;;;;;70.75;58.50;;;;;2.29;55.06;101600.88;4834140;29;9038;-74
2024/01/30 03:18:34;;;;;;;;;70.25;56.75;;;;;2.33;54.95;101600.19;4817726;29;9681;-72
2024/01/30 03:21:03;;;;;;;;;70.50;57.00;;;;;2.23;55.34;101597.19;4834988;29;8941;-73
2024/01/30 03:23:32;;;;;;;;;69.25;55.25;;;;;2.30;55.06;101600.06;4848585;29;8894;-73
2024/01/30 03:26:01;;;;;;;;;61.75;47.50;;;;;2.36;54.53;101605.53;4838459;29;8886;-74
2024/01/30 03:28:30;;;;;;;;;78.50;62.00;;;;;2.39;54.18;101595.28;4838609;29;8916;-74
2024/01/30 03:31:00;;;;;;;;;72.00;59.00;;;;;2.40;54.51;101597.06;4853816;29;9464;-73
2024/01/30 03:33:29;;;;;;;;;72.00;58.00;;;;;2.30;54.63;101595.75;4823800;29;8874;-75
2024/01/30 03:35:58;;;;;;;;;77.25;61.00;;;;;2.29;54.83;101595.69;4825380;29;8878;-73
2024/01/30 03:38:27;;;;;;;;;70.00;52.50;;;;;2.24;54.24;101595.50;4853529;29;8878;-74
2024/01/30 03:40:55;;;;;;;;;73.25;58.25;;;;;2.33;54.08;101592.41;4808185;29;8886;-74
2024/01/30 03:43:24;;;;;;;;;74.50;60.00;;;;;2.31;54.44;101594.06;4838006;29;8869;-73
2024/01/30 03:45:53;;;;;;;;;73.75;59.50;;;;;2.34;54.12;101592.50;4853345;29;8894;-74
2024/01/30 03:48:24;;;;;;;;;78.00;60.50;;;;;2.30;54.68;101595.75;4836423;29;8953;-72
2024/01/30 03:50:53;;;;;;;;;74.75;61.75;;;;;2.34;54.30;101599.41;4853196;29;8902;-74
2024/01/30 03:53:22;;;;;;;;;78.75;62.00;;;;;2.30;54.09;101597.47;4830919;29;8865;-74
2024/01/30 03:55:51;;;;;;;;;72.50;59.00;;;;;2.26;54.69;101592.94;4855695;29;9664;-73
2024/01/30 03:58:20;;;;;;;;;81.25;63.00;;;;;2.28;53.96;101599.09;4838016;29;8896;-74
2024/01/30 04:00:49;;;;;;;;;70.00;58.75;;;;;2.22;54.30;101602.28;4855546;29;8888;-74
2024/01/30 04:03:18;;;;;;;;;77.25;62.50;;;;;2.07;54.95;101593.78;4844188;29;8871;-74
2024/01/30 04:05:48;;;;;;;;;74.25;61.50;;;;;2.04;54.54;101594.56;4837352;29;8979;-75
2024/01/30 04:08:17;;;;;;;;;77.25;62.00;;;;;2.10;54.47;101599.13;4837532;29;9118;-74
2024/01/30 04:10:47;;;;;;;;;78.00;63.50;;;;;2.01;55.15;101597.91;4837147;29;8903;-74
2024/01/30 04:13:16;;;;;;;;;83.75;66.50;;;;;2.02;54.67;101588.41;4840330;29;8887;-74
2024/01/30 04:15:45;;;;;;;;;85.75;66.75;;;;;1.92;55.51;101594.88;4841362;29;8891;-73
2024/01/30 04:18:14;;;;;;;;;85.50;68.50;;;;;1.83;55.67;101589.25;4838935;29;8978;-74
2024/01/30 04:20:43;;;;;;;;;73.50;58.00;;;;;1.81;55.86;101591.75;4840861;29;9018;-74
2024/01/30 04:23:13;;;;;;;;;80.25;63.50;;;;;1.65;56.04;101586.66;4855929;29;8893;-73
2024/01/30 04:25:42;;;;;;;;;84.75;68.75;;;;;1.67;56.04;101595.38;4859676;29;8885;-73
2024/01/30 04:28:11;;;;;;;;;81.00;65.50;;;;;1.67;55.91;101595.38;4842163;29;8891;-73
2024/01/30 04:30:40;;;;;;;;;83.50;64.25;;;;;1.61;56.19;101597.69;4859481;29;9122;-74
2024/01/30 04:33:09;;;;;;;;;83.75;61.00;;;;;1.67;56.14;101602.28;4850123;29;8875;-74
2024/01/30 04:35:39;;;;;;;;;86.25;65.50;;;;;1.68;55.97;101604.06;4841365;29;8879;-74
2024/01/30 04:38:08;;;;;;;;;81.00;65.25;;;;;1.57;56.52;101607.00;4857421;29;9011;-74
2024/01/30 04:40:38;;;;;;;;;83.50;67.25;;;;;1.67;56.46;101599.69;4858835;29;8903;-73
2024/01/30 04:43:07;;;;;;;;;81.50;64.50;;;;;1.66;55.84;101604.00;4857675;29;8861;-73
2024/01/30 04:45:36;;;;;;;;;84.50;65.50;;;;;1.63;56.46;101607.34;4858995;29;8888;-74
2024/01/30 04:48:05;;;;;;;;;87.00;69.50;;;;;1.61;56.61;101606.34;4853282;29;9005;-74
2024/01/30 04:50:34;;;;;;;;;89.00;70.67;;;;;1.58;56.43;101611.41;4846159;29;10003;-73
2024/01/30 04:53:04;;;;;;;;;79.25;64.75;;;;;1.62;56.86;101612.44;4858662;29;9359;-73
2024/01/30 04:55:32;;;;;;;;;82.50;64.00;;;;;1.63;56.46;101612.53;4845056;29;8929;-74
2024/01/30 04:58:03;;;;;;;;;69.00;54.75;;;;;1.72;56.65;101609.47;4840251;29;8875;-73
2024/01/30 05:00:32;;;;;;;;;72.75;60.00;;;;;1.81;56.46;101609.03;4852585;29;8991;-73
2024/01/30 05:03:01;;;;;;;;;71.50;56.00;;;;;1.84;56.06;101616.94;4856474;29;8956;-73
2024/01/30 05:05:30;;;;;;;;;71.00;57.00;;;;;1.85;55.69;101610.06;4838798;29;8888;-75
2024/01/30 05:07:59;;;;;;;;;68.00;58.00;;;;;1.91;55.70;101618.13;4840363;29;8978;-73
2024/01/30 05:10:28;;;;;;;;;70.25;56.75;;;;;1.78;56.22;101614.94;4839887;29;8880;-74
2024/01/30 05:12:57;;;;;;;;;64.50;53.75;;;;;1.75;55.73;101612.22;4857338;29;8861;-75
2024/01/30 05:15:27;;;;;;;;;72.50;57.00;;;;;1.85;55.54;101613.53;4861397;29;8884;-74
2024/01/30 05:17:56;;;;;;;;;73.25;59.75;;;;;1.97;55.81;101615.81;4855624;29;8896;-74
2024/01/30 05:20:27;;;;;;;;;72.50;58.50;;;;;1.91;55.30;101615.53;4834473;29;8905;-75
2024/01/30 05:22:57;;;;;;;;;76.50;60.50;;;;;1.82;55.58;101616.88;4837301;29;8889;-76
2024/01/30 05:25:25;;;;;;;;;70.25;56.25;;;;;1.74;55.65;101614.72;4857604;29;8865;-75
2024/01/30 05:27:55;;;;;;;;;70.00;57.25;;;;;1.75;56.22;101613.94;4857945;29;8881;-76
2024/01/30 05:30:24;;;;;;;;;65.75;54.00;;;;;1.83;55.90;101621.25;4857804;29;8892;-74
2024/01/30 05:32:54;;;;;;;;;68.75;56.25;;;;;1.79;56.03;101629.69;4857925;29;8884;-75
2024/01/30 05:35:23;;;;;;;;;74.00;62.25;;;;;1.83;56.02;101620.38;4834935;29;8866;-76
2024/01/30 05:37:52;;;;;;;;;73.50;58.00;;;;;1.81;55.47;101622.00;4819684;29;8890;-75
2024/01/30 05:40:21;;;;;;;;;78.25;63.00;;;;;1.82;55.55;101621.16;4834968;29;9691;-76
2024/01/30 05:42:50;;;;;;;;;89.00;70.00;;;;;1.89;55.20;101625.84;4820717;29;8890;-74
2024/01/30 05:45:19;;;;;;;;;80.00;63.00;;;;;1.88;55.32;101624.06;4844097;29;9175;-74
2024/01/30 05:47:49;;;;;;;;;82.25;63.75;;;;;1.86;55.44;101629.97;4855760;29;8915;-74
2024/01/30 05:50:19;;;;;;;;;70.25;56.75;;;;;1.85;55.04;101629.09;4837842;29;9016;-74
2024/01/30 05:52:48;;;;;;;;;79.00;63.50;;;;;1.80;55.44;101626.28;4834333;29;8904;-74
2024/01/30 05:55:17;;;;;;;;;77.50;63.25;;;;;1.86;54.93;101632.56;4834139;29;8999;-75
2024/01/30 05:57:46;;;;;;;;;77.75;62.00;;;;;1.85;54.70;101638.59;4820255;29;8901;-74
2024/01/30 06:00:16;;;;;;;;;79.25;65.00;;;;;1.83;54.96;101635.94;4851240;29;8999;-74
2024/01/30 06:02:45;;;;;;;;;86.50;66.75;;;;;1.85;54.93;101639.47;4840123;29;8975;-74
2024/01/30 06:05:14;;;;;;;;;97.00;75.67;;;;;1.78;54.84;101642.59;4837501;29;8895;-74
2024/01/30 06:07:44;;;;;;;;;87.67;68.67;;;;;1.67;55.41;101647.22;4838445;29;9406;-74
2024/01/30 06:10:13;;;;;;;;;84.00;65.75;;;;;1.78;54.45;101642.59;4837597;29;9137;-75
2024/01/30 06:12:42;;;;;;;;;87.50;68.50;;;;;1.79;54.32;101647.84;4837097;29;8996;-74
2024/01/30 06:15:12;;;;;;;;;81.75;63.50;;;;;1.67;54.36;101642.03;4839720;29;8926;-73
2024/01/30 06:17:41;;;;;;;;;77.00;61.25;;;;;1.60;54.53;101648.66;4839970;29;8893;-74
2024/01/30 06:20:11;;;;;;;;;74.50;60.50;;;;;1.47;54.69;101654.03;4841854;29;8899;-74
2024/01/30 06:22:40;;;;;;;;;79.75;64.25;;;;;1.53;54.76;101649.16;4824686;29;8999;-76
2024/01/30 06:25:12;;;;;;;;;42.50;32.25;;;;;1.57;54.37;101655.38;4846131;29;8899;-74
2024/01/30 06:27:41;;;;;;;;;46.25;39.00;;;;;1.59;54.21;101657.22;4856075;29;8889;-75
2024/01/30 06:30:11;;;;;;;;;73.50;60.25;;;;;1.48;54.11;101660.97;4855979;29;8956;-75
2024/01/30 06:32:40;;;;;;;;;75.00;61.00;;;;;1.48;54.23;101655.78;4840462;29;8883;-75
2024/01/30 06:35:10;;;;;;;;;75.75;60.00;;;;;1.52;54.07;101662.03;4843417;29;8896;-77
2024/01/30 06:37:39;;;;;;;;;81.25;61.25;;;;;1.67;53.63;101656.72;4837791;29;8876;-75
2024/01/30 06:40:11;;;;;;;;;73.00;57.75;;;;;1.59;53.22;101658.94;4837907;29;8889;-77
2024/01/30 06:42:40;;;;;;;;;70.75;56.00;;;;;1.68;53.06;101664.59;4837906;29;8875;-73
2024/01/30 06:45:09;;;;;;;;;71.25;57.00;;;;;1.68;53.22;101655.91;4836656;29;8875;-74
2024/01/30 06:47:38;;;;;;;;;74.75;57.25;;;;;1.72;52.31;101657.84;4839362;29;8891;-74
2024/01/30 06:50:08;;;;;;;;;71.25;57.50;;;;;1.75;52.85;101660.59;4851247;29;8961;-74
2024/01/30 06:52:37;;;;;;;;;67.75;53.75;;;;;1.68;52.00;101664.59;4838502;29;8898;-75
2024/01/30 06:55:07;;;;;;;;;66.75;53.25;;;;;1.69;52.37;101668.97;4853843;29;8934;-73
2024/01/30 06:57:37;;;;;;;;;63.75;53.75;;;;;1.69;52.28;101670.66;4839762;29;9028;-74
2024/01/30 07:00:07;;;;;;;;;64.50;53.25;;;;;1.83;51.15;101665.31;4837743;29;8895;-75
2024/01/30 07:02:36;;;;;;;;;67.50;52.50;;;;;1.85;51.06;101667.13;4836846;29;8906;-74
2024/01/30 07:05:05;;;;;;;;;68.75;53.25;;;;;1.88;50.68;101660.38;4833838;29;8915;-75
2024/01/30 07:07:34;;;;;;;;;63.75;53.00;;;;;1.92;50.97;101662.31;4856468;29;8925;-74
2024/01/30 07:10:05;;;;;;;;;63.00;51.75;;;;;2.05;49.91;101666.38;4856409;29;8995;-75
2024/01/30 07:12:34;;;;;;;;;51.75;44.25;;;;;2.11;50.06;101669.25;4856213;29;8889;-76
2024/01/30 07:15:07;;;;;;;;;58.25;49.25;;;;;2.21;49.15;101668.88;4850502;29;8898;-75
2024/01/30 07:17:37;;;;;;;;;54.75;46.00;;;;;2.26;49.69;101671.69;4835909;29;8875;-76
2024/01/30 07:20:09;;;;;;;;;60.50;48.00;;;;;2.47;48.77;101676.13;4849482;29;8869;-77
2024/01/30 07:22:41;;;;;;;;;53.75;43.25;;;;;2.52;48.42;101678.09;4856283;29;9154;-76
2024/01/30 07:25:10;;;;;;;;;59.50;49.25;;;;;2.61;48.08;101681.09;4852465;29;8992;-75
2024/01/30 07:27:39;;;;;;;;;48.25;42.50;;;;;2.75;48.42;101684.34;4855280;29;8887;-74
2024/01/30 07:30:10;;;;;;;;;49.50;40.25;;;;;2.87;47.84;101677.94;4853668;29;8881;-75
2024/01/30 07:32:39;;;;;;;;;58.50;48.00;;;;;2.99;47.49;101679.34;4854801;29;9808;-76
2024/01/30 07:35:08;;;;;;;;;45.25;39.75;;;;;3.08;47.10;101673.69;4854405;29;8869;-74
2024/01/30 07:37:38;;;;;;;;;48.00;42.00;;;;;3.16;46.81;101680.09;4840332;29;8906;-76
2024/01/30 07:40:08;;;;;;;;;49.00;43.75;;;;;3.30;46.29;101675.50;4853277;29;9003;-77
2024/01/30 07:42:37;;;;;;;;;47.75;42.75;;;;;3.29;46.03;101678.03;4856795;29;8884;-75
2024/01/30 07:45:06;;;;;;;;;38.50;32.25;;;;;3.27;46.52;101675.38;4859694;29;8877;-74
2024/01/30 07:47:37;;;;;;;;;46.75;39.75;;;;;3.28;46.60;101681.44;4857874;29;8885;-74
2024/01/30 07:50:07;;;;;;;;;44.75;39.00;;;;;3.45;46.02;101672.72;4861937;29;8861;-75
2024/01/30 07:52:37;;;;;;;;;47.75;41.00;;;;;3.61;45.44;101674.25;4862255;29;8932;-75
2024/01/30 07:55:07;;;;;;;;;46.25;40.75;;;;;3.82;44.66;101681.16;4828989;29;8903;-76
2024/01/30 07:57:39;;;;;;;;;42.50;40.25;;;;;3.81;45.17;101682.88;4861874;29;8884;-76
2024/01/30 08:00:08;;;;;;;;;44.75;39.75;;;;;4.03;44.45;101682.03;4848058;29;8903;-77
2024/01/30 08:02:39;;;;;;;;;43.75;36.75;;;;;4.21;44.26;101683.59;4861358;29;8873;-76
2024/01/30 08:05:10;;;;;;;;;52.25;42.50;;;;;4.22;43.89;101683.63;4844337;29;8946;-74
2024/01/30 08:07:39;;;;;;;;;49.25;41.00;;;;;4.28;43.69;101685.59;4862200;29;8912;-77
2024/01/30 08:10:09;;;;;;;;;44.50;41.00;;;;;4.22;44.07;101678.44;4861782;29;8897;-76
2024/01/30 08:12:38;;;;;;;;;48.25;40.75;;;;;4.17;43.68;101677.38;4860635;29;8885;-75
2024/01/30 08:15:08;;;;;;;;;51.25;44.25;;;;;4.09;44.01;101681.38;4829482;29;8991;-74
2024/01/30 08:17:39;;;;;;;;;49.50;42.50;;;;;4.16;43.80;101679.06;4860745;29;8873;-76
2024/01/30 08:20:10;;;;;;;;;44.00;40.00;;;;;4.13;44.66;101676.38;4861745;29;8904;-76
2024/01/30 08:22:40;;;;;;;;;31.50;30.25;;;;;4.16;44.24;101686.00;4861706;29;8873;-76
2024/01/30 08:25:10;;;;;;;;;43.25;41.50;;;;;4.34;44.00;101676.31;4862221;29;9031;-76
2024/01/30 08:27:39;;;;;;;;;42.75;38.25;;;;;4.56;43.55;101682.34;4829026;29;9650;-76
2024/01/30 08:30:09;;;;;;;;;40.75;35.25;;;;;4.79;43.36;101682.31;4844490;29;8920;-76
2024/01/30 08:32:40;;;;;;;;;45.50;41.25;;;;;4.74;43.20;101679.56;4863593;29;8864;-75
2024/01/30 08:35:09;;;;;;;;;51.00;43.50;;;;;4.91;42.83;101680.19;4862546;29;8915;-76
2024/01/30 08:37:38;;;;;;;;;46.00;39.00;;;;;4.96;42.50;101678.59;4861844;29;8897;-76
2024/01/30 08:40:09;;;;;;;;;42.00;38.50;;;;;5.15;42.47;101678.47;4861716;29;9005;-77
2024/01/30 08:42:39;;;;;;;;;49.00;41.75;;;;;5.03;42.12;101684.94;4861729;29;8877;-75
2024/01/30 08:45:09;;;;;;;;;45.50;41.75;;;;;5.12;42.12;101685.28;4861521;29;8869;-76
2024/01/30 08:47:41;;;;;;;;;45.00;40.25;;;;;5.17;42.06;101682.81;4861631;29;8966;-76
2024/01/30 08:50:10;;;;;;;;;24.25;22.50;;;;;5.36;41.55;101680.09;4861659;29;8889;-77
2024/01/30 08:52:39;;;;;;;;;40.00;38.25;;;;;5.41;41.92;101678.50;4859122;29;8892;-75
2024/01/30 08:55:09;;;;;;;;;43.00;37.50;;;;;5.24;41.44;101685.69;4859425;29;8911;-76
2024/01/30 08:57:38;;;;;;;;;43.40;38.60;;;;;5.21;41.37;101689.91;4861443;29;8852;-77
2024/01/30 09:00:09;;;;;;;;;40.00;33.80;;;;;5.19;41.26;101686.38;4855567;29;8972;-77
2024/01/30 09:02:40;;;;;;;;;34.50;33.75;;;;;5.21;40.76;101684.72;4858733;29;9624;-77
2024/01/30 09:05:09;;;;;;;;;43.50;41.25;;;;;5.28;41.18;101684.09;4858470;29;9049;-76
2024/01/30 09:07:38;;;;;;;;;43.00;39.50;;;;;5.37;41.02;101686.19;4857418;29;9681;-76
2024/01/30 09:10:08;;;;;;;;;40.50;38.50;;;;;5.35;40.94;101680.91;4857978;29;8881;-76
2024/01/30 09:12:42;;;;;;;;;34.20;30.00;;;;;5.48;40.46;101688.31;4856550;29;9000;-76
2024/01/30 09:15:11;;;;;;;;;34.60;33.60;;;;;5.45;39.82;101684.72;4857160;29;8881;-76
2024/01/30 09:17:42;;;;;;;;;39.20;36.60;;;;;5.60;39.50;101674.81;4856075;29;8998;-75
2024/01/30 09:20:12;;;;;;;;;40.80;37.80;;;;;5.55;39.23;101676.38;4858293;29;8915;-76
2024/01/30 09:22:41;;;;;;;;;40.80;38.20;;;;;5.48;39.03;101680.50;4859813;29;8948;-77
2024/01/30 09:25:10;;;;;;;;;35.40;34.40;;;;;5.36;38.83;101674.88;4860170;29;8893;-75
2024/01/30 09:27:40;;;;;;;;;31.80;29.00;;;;;5.30;39.54;101672.94;4858309;29;9087;-77
2024/01/30 09:30:09;;;;;;;;;33.20;29.20;;;;;5.41;38.78;101667.19;4859094;29;8864;-75
2024/01/30 09:32:40;;;;;;;;;28.40;27.60;;;;;5.40;38.68;101668.91;4858844;29;8873;-75
2024/01/30 09:35:10;;;;;;;;;29.00;27.00;;;;;5.26;38.31;101668.38;4855843;29;8948;-77
2024/01/30 09:37:40;;;;;;;;;31.40;28.60;;;;;5.31;38.65;101664.25;4856963;29;8986;-75
2024/01/30 09:40:10;;;;;;;;;28.40;27.20;;;;;5.32;37.93;101666.06;4856678;29;8869;-77
2024/01/30 09:42:40;;;;;;;;;30.40;25.80;;;;;5.29;38.24;101662.41;4857870;29;8901;-76
2024/01/30 09:45:14;;;;;;;;;34.60;32.40;;;;;5.20;38.79;101662.97;4857382;29;8861;-78
2024/01/30 09:47:46;;;;;;;;;35.40;34.60;;;;;5.29;38.61;101667.63;4858002;29;8865;-76
2024/01/30 09:50:17;;;;;;;;;35.80;35.00;;;;;5.16;39.36;101663.69;4857936;29;8972;-76
2024/01/30 09:52:47;;;;;;;;;29.60;29.60;;;;;5.32;38.70;101662.53;4841443;29;8893;-77
2024/01/30 09:55:15;;;;;;;;;36.20;33.00;;;;;5.31;38.67;101666.00;4824790;29;8885;-77
2024/01/30 09:57:44;;;;;;;;;33.40;31.80;;;;;5.36;38.25;101659.22;4858071;29;8908;-76
2024/01/30 10:00:14;;;;;;;;;35.40;32.80;;;;;5.38;38.75;101659.25;4857593;29;8887;-76
2024/01/30 10:02:44;;;;;;;;;38.60;36.60;;;;;5.36;38.63;101650.50;4855321;29;8908;-75
2024/01/30 10:05:20;;;;;;;;;30.20;29.40;;;;;5.42;37.45;101650.72;4857373;29;8997;-76
2024/01/30 10:07:54;;;;;;;;;30.00;30.00;;;;;5.45;37.63;101641.28;4855269;29;8861;-75
2024/01/30 10:10:24;;;;;;;;;31.80;30.40;;;;;5.53;36.76;101646.75;4858599;29;9030;-75
2024/01/30 10:12:53;;;;;;;;;36.00;33.20;;;;;5.27;37.07;101651.03;4844266;29;8912;-75
2024/01/30 10:15:22;;;;;;;;;28.40;27.20;;;;;5.45;36.88;101646.50;4858487;29;8988;-76
2024/01/30 10:17:51;;;;;;;;;21.60;20.20;;;;;5.47;34.98;101649.13;4857651;29;9635;-76
2024/01/30 10:20:22;;;;;;;;;21.60;18.20;;;;;5.47;34.67;101652.66;4857143;29;8884;-77
2024/01/30 10:22:51;;;;;;;;;21.20;19.40;;;;;5.54;34.25;101643.28;4857187;29;8923;-74
2024/01/30 10:25:23;;;;;;;;;20.40;18.80;;;;;5.71;34.47;101642.13;4855882;29;8991;-75
2024/01/30 10:27:55;;;;;;;;;16.60;16.60;;;;;5.76;33.84;101642.28;4859600;29;8877;-75
2024/01/30 10:30:24;;;;;;;;;22.00;20.60;;;;;5.88;33.94;101634.84;4859394;29;8950;-76
2024/01/30 10:32:53;;;;;;;;;26.80;22.20;;;;;6.06;33.91;101634.56;4859440;29;8865;-76
2024/01/30 10:35:23;;;;;;;;;20.80;20.80;;;;;6.30;33.66;101637.03;4802714;29;8900;-74
2024/01/30 10:37:53;;;;;;;;;24.80;23.80;;;;;6.40;34.25;101637.28;4802749;29;8879;-77
2024/01/30 10:40:27;;;;;;;;;19.20;17.80;;;;;6.52;33.32;101635.06;4818030;29;9018;-76
2024/01/30 10:42:57;;;;;;;;;20.80;20.80;;;;;6.60;33.16;101632.66;4818052;29;8994;-76
2024/01/30 10:45:28;;;;;;;;;21.80;21.40;;;;;6.66;33.21;101623.28;4817866;29;8911;-76
2024/01/30 10:48:00;;;;;;;;;20.40;18.40;;;;;6.69;33.87;101619.84;4817803;29;8994;-76
2024/01/30 10:50:34;;;;;;;;;34.60;25.60;;;;;6.63;34.12;101622.31;4817275;29;8903;-75
2024/01/30 10:53:07;;;;;;;;;26.20;24.60;;;;;6.73;34.07;101613.00;4817389;29;8940;-77
2024/01/30 10:55:37;;;;;;;;;22.00;22.00;;;;;6.81;34.08;101609.72;4817514;29;8919;-75
2024/01/30 10:58:10;;;;;;;;;24.80;24.00;;;;;6.78;33.49;101609.66;4817646;29;8906;-76
2024/01/30 11:00:39;;;;;;;;;24.40;22.20;;;;;6.85;33.06;101602.84;4817342;29;8860;-76
2024/01/30 11:03:08;;;;;;;;;23.80;21.00;;;;;6.74;33.21;101606.91;4817638;29;8898;-75
2024/01/30 11:05:41;;;;;;;;;22.80;19.00;;;;;6.92;32.13;101596.13;4818495;29;8895;-75
2024/01/30 11:08:14;;;;;;;;;19.60;19.20;;;;;6.98;32.50;101596.28;4817736;29;8891;-75
2024/01/30 11:10:47;;;;;;;;;18.60;18.20;;;;;6.84;31.51;101598.50;4802578;29;8863;-76
2024/01/30 11:13:17;;;;;;;;;20.20;18.80;;;;;7.03;31.37;101599.91;4831906;29;8910;-76
2024/01/30 11:15:48;;;;;;;;;21.20;20.20;;;;;7.12;31.83;101599.25;4857776;29;8892;-76
2024/01/30 11:18:25;;;;;;;;;23.80;17.00;;;;;7.42;31.04;101593.91;4856733;29;8865;-75
2024/01/30 11:20:57;;;;;;;;;17.60;15.00;;;;;7.30;31.20;101576.19;4854902;29;8904;-75
2024/01/30 11:23:27;;;;;;;;;20.80;18.60;;;;;7.46;30.76;101587.94;4855383;29;8877;-77
2024/01/30 11:25:58;;;;;;;;;18.60;18.60;;;;;7.51;30.82;101581.06;4870122;29;8877;-75
2024/01/30 11:28:33;;;;;;;;;14.60;13.40;;;;;7.55;30.94;101579.41;4855928;29;9006;-75
2024/01/30 11:31:07;;;;;;;;;19.20;17.00;;;;;7.74;29.82;101576.41;4855805;29;8945;-75
2024/01/30 11:33:37;;;;;;;;;16.60;15.80;;;;;7.90;29.67;101575.00;4856070;29;8897;-74
2024/01/30 11:36:09;;;;;;;;;19.00;17.80;;;;;8.01;29.56;101568.28;4856110;29;8881;-77